Create Custom Reports and Graphics: Custom Report

North/Central County Map

Map

15 Minute Data

South County Map

Map

15 Minute Data

Northern Sonoma County Latest

15 Stations

15 Minute Data | America/Los_Angeles
as of 6/22/21 6:55 PM PDT
Station Date Time Temp (°F) RH (%) Dew Pt (°F) Wind Spd (mph) Wind Dir (°) Wind Gust (mph) Latest Rain (In) Daily Rain (In) Daily Min Temp (°F) Daily Max Temp (°F)
Rockpile Lower (Cooley) 6/22/21 1830 77.5   3.2 34   5 47.0   1.1 1.9 S | 180 5.0   5.4 0.00 0.00 52.0   2.0 81.0   0.1
Rockpile Upper (Cooley) 6/22/21 1845 71.6   1.5 40   1 46.3   2.2 6.4 S | 180 10.7   0.2 0.00 0.00 49.3   2.1 75.3   5.0
Cloverdale-East (Ranch 83) 6/22/21 1845 77.3   1.8 43   3 53.0   0.1 5.2 SSE | 167 10.7   1.8 0.00 0.00 56.6   3.2 80.7   0.4
Cloverdale-SE (Ranch 38) 6/22/21 1845 75.2   2.8 45   5 52.5   0.1 8.7 SSE | 158 14.9   3.5 0.00 0.00 54.8   2.1 78.6   0.0
Geyserville-North (Hoffman) 6/22/21 1845 73.9   1.8 50   1 53.9   0.9 5.0 SSE | 149 9.1   1.1 0.00 0.00 56.6   2.4 77.8   0.7
Geyserville (Ranch 3) 6/22/21 1845 74.7   1.5 48   1 53.5   0.7 6.2 SE | 127 10.9   0.3 0.00 0.00 56.9   2.2 78.1   0.7
Geyserville-East (Ranch 40) 6/22/21 1845 70.0   1.2 56   2 53.4   0.3 13.6 S | 182 19.2   1.8 0.00 0.00 54.0   2.0 75.9   0.4
Geyserville-South (Nervo Station) 6/22/21 1845 72.8   1.7 49   3 52.6   0.2 4.9 SSE | 165 10.1   0.0 0.00 0.00 56.2   2.4 76.3   0.4
Lytton (River Oaks) 6/22/21 1845 72.9   1.0 50   2 53.0   0.1 6.4 S | 169 12.5   2.4 0.00 0.00 56.7   2.3 78.4   0.4
Jimtown-North (Piccolo-R15) 6/22/21 1845 72.5   0.2 46   0 50.6   0.0 3.9 S | 176 10.3   1.8 0.00 0.00 56.6   2.1 76.9   0.1
Jimtown-NE (Red Fan) 6/22/21 1845 73.2   0.8 50   0 53.7   0.8 6.6 SSE | 153 12.0   0.8 0.00 0.00 57.0   2.0 78.5   1.0
HWY 128/Chalk Hill Rd (Landslide) 6/22/21 1845 70.9   0.4 54   1 53.3   0.7 6.0 S | 176 11.3   0.3 0.00 0.00 57.0   1.9 77.1   1.7
Knights Valley (Bavarian Lion) 6/22/21 1845 71.3   1.0 51   2 52.5   0.4 6.7 W | 270 14.2   2.6 0.00 0.00 55.9   5.6 76.7   0.4
Upper Dry Creek Valley 6/22/21 1845 78.0   3.2 44   5 54.2   0.4 4.5 SSE | 165 9.1   2.1 0.00 0.00 57.4   2.1 80.8   1.5
Lower Dry Creek Valley 6/22/21 1845 73.4   1.8 49   6 53.2   1.2 5.5 SSE | 164 10.4   3.5 0.00 0.00 57.4   2.3 77.6   2.0
Max     78.0 56 54.2 13.6 - 19.2 0.00 0.00 57.4 81.0
Avg     73.7 47 52.2 6.1 - 11.4 0.00 - - -
Min     70.0 34 46.3 1.9 - 5.0 0.00 0.00 49.3 75.3

Central Sonoma County Latest

28 Stations

15 Minute Data | America/Los_Angeles
as of 6/22/21 6:55 PM PDT
Station Date Time Temp (°F) RH (%) Dew Pt (°F) Wind Spd (mph) Wind Dir (°) Wind Gust (mph) Latest Rain (In) Daily Rain (In) Daily Min Temp (°F) Daily Max Temp (°F)
Healdsburg-South (Sodini) 6/22/21 1845 71.7   1.2 50   5 51.9   1.7 7.0 SSE | 165 12.5   0.7 0.00 0.00 57.2   2.4 77.1   1.4
Windsor-NW (Ranch 8) 6/22/21 1845 70.9   0.8 55   6 54.1   1.8 4.4 SSE | 152 11.7   1.3 0.00 0.00 57.5   2.4 77.3   1.7
Windsor-East (Ranch 16) 6/22/21 1845 69.1   1.6 54   7 51.8   1.6 5.2 S | 180 8.6   2.4 0.00 0.00 57.6   2.5 76.2   3.3
Mark West-North (Ranch 14) 6/22/21 1845 67.5   2.3 56   9 51.5   1.9 4.5 NW | 304 10.0   1.6 0.00 0.00 57.8   2.6 74.4   3.5
Windsor-SE (Silk Rd) 6/22/21 1845 69.5   2.7 54   10 52.1   2.0 4.7 S | 182 9.6   0.9 0.00 0.00 57.5   2.4 73.9   1.8
Fulton-NW (Ranch 5) 6/22/21 1845 68.5   3.0 56   10 52.4   1.7 8.7 S | 179 14.4   0.8 0.00 0.00 57.9   2.7 73.8   2.9
Windsor-South (Laughlin Rd) 6/22/21 1845 69.6   2.0 - - - - - 0.00 0.00 57.3   2.0 74.4   1.9
Fulton-SE (Barnes Rd) 6/22/21 1845 67.9   2.5 59   8 52.9   1.1 5.1 SW | 214 9.8   1.7 0.00 0.00 57.5   2.2 73.9   3.1
Fulton-SW (Ranch 21) 6/22/21 1845 67.7   3.4 57   11 52.2   1.6 6.3 SW | 219 13.8   1.1 0.00 0.00 58.1   2.9 73.3   2.5
Santa Rosa-NW (Goldfields) 6/22/21 1845 67.0   3.5 59   12 52.2   1.7 6.9 SSW | 208 13.4   0.8 0.00 0.00 58.0   2.6 73.8   3.6
NW Santa Rosa (Piner Road) 6/22/21 1845 66.4   3.6 61   11 52.8   1.1 6.0 SW | 234 12.4   0.1 0.00 0.00 57.9   2.6 72.8   2.2
River Rd South (Denner Ranch) 6/22/21 1845 66.9   3.5 57   12 51.2   2.0 9.4 S | 186 14.7   1.3 0.00 0.00 57.6   2.9 73.1   3.1
West Santa Rosa (Hawk's Roost) 6/22/21 1845 67.6   3.5 58   11 52.2   1.7 4.6 SSW | 206 11.0   1.5 0.00 0.00 58.1   2.7 73.0   2.6
Guerneville Rd (Prokopakis) 6/22/21 1845 66.5   3.8 60   13 52.3   1.9 - - - 0.00 0.00 58.3   2.5 72.6   2.6
Guerneville Rd West (Balletto) 6/22/21 1845 66.5   3.1 63   9 53.6   0.8 6.8 SW | 226 12.6   0.5 0.00 0.00 58.4   2.8 72.1   3.0
Guerneville Rd East (Rich Ranch) 6/22/21 1845 67.9   2.9 58   9 52.6   1.4 - - - - - 58.3   2.6 74.4   3.1
Occidental Rd (Sebastopol) 6/22/21 1845 66.8   4.1 63   15 54.1   1.7 4.9 SW | 230 12.9   3.7 0.00 0.00 58.0   2.5 73.1   2.4
Lower Westside Rd (Ranch 12) 6/22/21 1845 70.5   1.6 51   8 51.7   2.2 3.9 SSW | 205 8.1   2.5 0.00 0.00 57.5   2.4 74.6   0.9
Guerneville (Laughlin Rd) 6/22/21 1845 69.4   3.6 55   11 52.4   1.4 3.5 S | 169 7.6   2.4 0.00 0.00 55.6   0.4 75.2   3.2
Korbel (Winery) 6/22/21 1845 68.7   3.2 57   10 53.0   1.2 5.1 NW | 307 10.4   0.1 0.00 0.00 56.8   1.3 74.6   2.9
Forestville (Shone Farms) 6/22/21 1845 69.3   2.6 55   9 52.4   1.6 4.7 SSW | 211 12.0   0.1 0.00 0.00 56.1   2.3 74.2   1.6
Forestville-NE (Ranch 30) 6/22/21 1845 68.5   2.5 58   9 53.2   1.5 6.5 SSW | 210 12.0   3.7 0.00 0.00 57.2   2.5 74.1   2.8
Graton-West (Dutton Ranch) 6/22/21 1845 66.6   3.8 59   15 51.7   2.7 3.9 SW | 218 8.7   1.5 0.00 0.00 57.9   2.5 72.8   3.3
Graton-South (Mill Station Rd) 6/22/21 1845 65.5   5.2 63   15 52.4   1.0 6.4 SW | 236 12.1   0.3 0.00 0.00 57.1   2.2 70.4   4.1
Occidental (Horseshoe Bend) 6/22/21 1845 62.5   4.8 68   18 51.7   1.9 - - - - - 55.1   2.6 68.2   4.4
Sexton Valley (Jacqueline's Blk) 6/22/21 1845 65.8   4.9 65   13 53.6   0.4 1.4 SSW | 202 4.9   3.2 0.00 0.00 56.7   1.7 71.2   3.9
Sebastopol Hills (Burnside Rd) 6/22/21 1845 63.4   4.5 70   13 53.3   0.4 7.0 SW | 232 13.2   2.2 0.00 0.00 55.5   2.1 68.5   3.4
Seaview/Fort Ross (Hirsch) 6/22/21 1845 60.8   4.2 71   14 51.2   1.0 2.4 SW | 224 6.0   1.0 0.00 0.02 50.5   1.6 68.0   2.2
Max     71.7 71 54.1 9.4 - 14.7 0.00 0.02 58.4 77.3
Avg     67.5 59 52.5 5.4 - 10.9 0.00 - - -
Min     60.8 50 51.2 1.4 - 4.9 0.00 0.00 50.5 68.0

Southern Sonoma County Latest

17 Stations

15 Minute Data | America/Los_Angeles
as of 6/22/21 6:55 PM PDT
Station Date Time Temp (°F) RH (%) Dew Pt (°F) Wind Spd (mph) Wind Dir (°) Wind Gust (mph) Latest Rain (In) Daily Rain (In) Daily Min Temp (°F) Daily Max Temp (°F)
Upper Rincon Valley 6/22/21 1845 66.0   1.0 60   4 51.9   0.7 3.1 S | 191 7.4   1.6 0.00 0.00 53.5   2.0 71.3   0.8
Lower Bennett Valley 6/22/21 1845 68.4   1.8 57   6 52.4   0.9 5.1 SW | 230 9.4   1.7 0.00 0.00 57.0   2.9 74.8   1.7
Kenwood (Kunde) 6/22/21 1830 70.2   1.2 55   3 53.4   0.3 1.9 WSW | 247 14.4   4.8 0.00 0.00 57.4   2.7 76.2   0.6
Sonoma Valley (Bedrock) 6/22/21 1845 70.0   0.2 50   1 50.2   0.3 5.2 NNW | 338 9.1   6.7 0.00 0.00 55.7   1.6 77.2   0.5
Sonoma-West (Arnold) 6/22/21 1845 71.2   0.8 50   4 51.6   1.1 7.8 W | 271 14.4   1.2 0.00 0.00 58.5   5.3 78.1   2.0
Sonoma Valley HS 6/22/21 1845 71.0   0.1 52   1 52.6   0.6 4.8 WSW | 240 12.1   2.7 0.00 0.00 58.8   4.7 76.4   1.5
Sonoma East (Bundschu01) 6/22/21 1845 72.4   0.2 49   1 52.2   0.5 6.8 W | 269 15.6   2.0 0.00 0.00 58.9   4.7 77.8   1.4
Schellville (Sasaki) 6/22/21 1845 73.0   1.3 48   4 52.1   1.1 4.1 WSW | 247 10.5   0.0 0.00 0.00 59.2   4.7 80.4   0.3
Sonoma-SE (Napoli) 6/11/21 0845 61.1   3.2 43   15 38.7   4.6 2.0 SE | 137 4.8   3.7 0.00 0.00 39.8   2.1 61.5   2.7
Carneros (Ranch 71) 6/22/21 1845 71.3   1.2 50   3 51.9   0.5 13.9 W | 263 19.3   3.8 0.00 0.00 57.9   3.9 77.2   0.2
Carneros Upper (Ranch 81) 6/22/21 1845 71.9   1.3 48   2 51.2   0.1 13.1 WSW | 258 18.1   3.9 - - 58.0   4.0 77.6   1.0
Carneros Lower (Ranch 81) 6/22/21 1845 74.7   1.0 46   2 52.6   0.3 1.5 W | 263 6.1   2.2 0.00 0.00 58.9   4.6 80.5   1.8
Rohnert Park-West (Stony Point) 6/22/21 1845 66.7   2.7 63   8 53.9   0.8 6.7 SW | 224 12.2   0.8 0.00 0.00 57.4   1.8 74.0   3.1
Penngrove (Asellus) 6/22/21 1845 67.2   2.2 59   8 52.4   1.3 6.6 W | 272 11.7   0.4 0.00 0.00 58.2   2.6 74.2   1.8
Roger's Creek (Ranch 50) 6/22/21 1845 67.6   1.9 56   7 51.2   1.4 8.7 W | 260 15.0   1.9 0.00 0.00 55.8   2.7 72.9   0.3
Petaluma (Ranch 10) 6/22/21 1845 69.9   1.2 53   5 51.9   1.4 6.3 WSW | 250 11.0   0.3 0.00 0.00 59.0   2.3 75.9   0.1
Lakeville (Ranch 47) 6/22/21 1845 69.9   1.6 52   5 51.7   1.2 9.9 WNW | 284 16.0   4.2 0.00 0.00 59.5   6.8 74.6   1.9
Max     74.7 63 53.9 13.9 - 19.3 0.00 0.00 59.5 80.5
Avg     70.1 53 52.1 6.6 - 12.6 0.00 - - -
Min     66.0 46 50.2 1.5 - 6.1 0.00 0.00 53.5 71.3

Latest Observations

Map

Hourly Data